sensor_id;sensor_type;location;lat;lon;timestamp;temperature;humidity
528;DHT22;250;47.712;7.508;2022-07-10T00:00:33;19.20;33.10
528;DHT22;250;47.712;7.508;2022-07-10T00:03:00;19.20;32.90
528;DHT22;250;47.712;7.508;2022-07-10T00:05:28;19.20;32.50
528;DHT22;250;47.712;7.508;2022-07-10T00:07:55;19.20;32.30
528;DHT22;250;47.712;7.508;2022-07-10T00:10:24;19.10;32.60
528;DHT22;250;47.712;7.508;2022-07-10T00:12:51;19.10;33.10
528;DHT22;250;47.712;7.508;2022-07-10T00:15:19;19.10;33.70
528;DHT22;250;47.712;7.508;2022-07-10T00:17:46;19.10;33.80
528;DHT22;250;47.712;7.508;2022-07-10T00:20:14;19.10;34.20
528;DHT22;250;47.712;7.508;2022-07-10T00:22:42;19.10;34.70
528;DHT22;250;47.712;7.508;2022-07-10T00:25:11;19.00;35.30
528;DHT22;250;47.712;7.508;2022-07-10T00:27:40;18.90;35.80
528;DHT22;250;47.712;7.508;2022-07-10T00:30:09;18.90;36.20
528;DHT22;250;47.712;7.508;2022-07-10T00:32:36;18.80;36.60
528;DHT22;250;47.712;7.508;2022-07-10T00:35:05;18.70;37.10
528;DHT22;250;47.712;7.508;2022-07-10T00:37:32;18.70;37.20
528;DHT22;250;47.712;7.508;2022-07-10T00:39:59;18.70;37.40
528;DHT22;250;47.712;7.508;2022-07-10T00:42:27;18.70;37.70
528;DHT22;250;47.712;7.508;2022-07-10T00:44:55;18.70;37.70
528;DHT22;250;47.712;7.508;2022-07-10T00:47:22;18.60;37.60
528;DHT22;250;47.712;7.508;2022-07-10T00:49:49;18.50;38.20
528;DHT22;250;47.712;7.508;2022-07-10T00:52:17;18.50;38.50
528;DHT22;250;47.712;7.508;2022-07-10T00:54:47;18.50;38.90
528;DHT22;250;47.712;7.508;2022-07-10T00:57:16;18.40;39.10
528;DHT22;250;47.712;7.508;2022-07-10T00:59:44;18.40;39.20
528;DHT22;250;47.712;7.508;2022-07-10T01:02:13;18.40;39.60
528;DHT22;250;47.712;7.508;2022-07-10T01:04:42;18.30;39.50
528;DHT22;250;47.712;7.508;2022-07-10T01:07:09;18.40;39.60
528;DHT22;250;47.712;7.508;2022-07-10T01:09:37;18.30;39.60
528;DHT22;250;47.712;7.508;2022-07-10T01:12:05;18.30;39.60
528;DHT22;250;47.712;7.508;2022-07-10T01:14:33;18.30;40.40
528;DHT22;250;47.712;7.508;2022-07-10T01:17:01;18.30;40.00
528;DHT22;250;47.712;7.508;2022-07-10T01:19:29;18.30;39.70
528;DHT22;250;47.712;7.508;2022-07-10T01:21:58;18.30;39.50
528;DHT22;250;47.712;7.508;2022-07-10T01:24:25;18.40;39.40
528;DHT22;250;47.712;7.508;2022-07-10T01:26:52;18.40;39.20
528;DHT22;250;47.712;7.508;2022-07-10T01:29:22;18.40;39.00
528;DHT22;250;47.712;7.508;2022-07-10T01:31:49;18.30;39.00
528;DHT22;250;47.712;7.508;2022-07-10T01:34:16;18.30;39.10
528;DHT22;250;47.712;7.508;2022-07-10T01:36:44;18.20;39.20
528;DHT22;250;47.712;7.508;2022-07-10T01:39:13;18.20;39.30
528;DHT22;250;47.712;7.508;2022-07-10T01:41:40;18.20;39.40
528;DHT22;250;47.712;7.508;2022-07-10T01:44:07;18.20;39.50
528;DHT22;250;47.712;7.508;2022-07-10T01:46:34;18.20;39.60
528;DHT22;250;47.712;7.508;2022-07-10T01:49:01;18.10;40.00
528;DHT22;250;47.712;7.508;2022-07-10T01:51:28;18.00;40.20
528;DHT22;250;47.712;7.508;2022-07-10T01:53:55;18.00;40.40
528;DHT22;250;47.712;7.508;2022-07-10T01:56:24;18.00;40.50
528;DHT22;250;47.712;7.508;2022-07-10T01:58:51;18.00;40.60
528;DHT22;250;47.712;7.508;2022-07-10T02:01:18;17.90;40.80
528;DHT22;250;47.712;7.508;2022-07-10T02:03:45;17.90;40.80
528;DHT22;250;47.712;7.508;2022-07-10T02:06:29;18.00;40.80
528;DHT22;250;47.712;7.508;2022-07-10T02:08:57;18.00;40.80
528;DHT22;250;47.712;7.508;2022-07-10T02:11:25;18.00;40.50
528;DHT22;250;47.712;7.508;2022-07-10T02:13:52;18.10;40.10
528;DHT22;250;47.712;7.508;2022-07-10T02:16:19;18.10;40.00
528;DHT22;250;47.712;7.508;2022-07-10T02:18:46;18.10;40.20
528;DHT22;250;47.712;7.508;2022-07-10T02:21:14;18.10;40.10
528;DHT22;250;47.712;7.508;2022-07-10T02:23:41;18.10;40.00
528;DHT22;250;47.712;7.508;2022-07-10T02:26:08;18.10;39.90
528;DHT22;250;47.712;7.508;2022-07-10T02:28:36;18.10;39.80
528;DHT22;250;47.712;7.508;2022-07-10T02:31:04;18.10;39.90
528;DHT22;250;47.712;7.508;2022-07-10T02:33:31;18.10;39.80
528;DHT22;250;47.712;7.508;2022-07-10T02:35:58;18.10;39.80
528;DHT22;250;47.712;7.508;2022-07-10T02:38:25;18.20;39.80
528;DHT22;250;47.712;7.508;2022-07-10T02:40:52;18.10;39.60
528;DHT22;250;47.712;7.508;2022-07-10T02:43:19;18.10;39.50
528;DHT22;250;47.712;7.508;2022-07-10T02:45:48;18.20;39.30
528;DHT22;250;47.712;7.508;2022-07-10T02:48:15;18.20;39.10
528;DHT22;250;47.712;7.508;2022-07-10T02:50:43;18.20;39.00
528;DHT22;250;47.712;7.508;2022-07-10T02:53:11;18.30;39.10
528;DHT22;250;47.712;7.508;2022-07-10T02:55:38;18.30;39.20
528;DHT22;250;47.712;7.508;2022-07-10T02:58:05;18.30;39.40
528;DHT22;250;47.712;7.508;2022-07-10T03:00:32;18.20;39.60
528;DHT22;250;47.712;7.508;2022-07-10T03:03:01;18.10;40.30
528;DHT22;250;47.712;7.508;2022-07-10T03:05:28;18.00;40.70
528;DHT22;250;47.712;7.508;2022-07-10T03:07:55;18.00;41.30
528;DHT22;250;47.712;7.508;2022-07-10T03:10:22;17.90;41.90
528;DHT22;250;47.712;7.508;2022-07-10T03:12:49;17.80;41.80
528;DHT22;250;47.712;7.508;2022-07-10T03:15:16;17.80;42.00
528;DHT22;250;47.712;7.508;2022-07-10T03:17:44;17.80;42.10
528;DHT22;250;47.712;7.508;2022-07-10T03:20:12;17.80;42.10
528;DHT22;250;47.712;7.508;2022-07-10T03:22:39;17.80;42.00
528;DHT22;250;47.712;7.508;2022-07-10T03:25:07;17.80;42.20
528;DHT22;250;47.712;7.508;2022-07-10T03:27:34;17.80;42.20
528;DHT22;250;47.712;7.508;2022-07-10T03:30:01;17.80;42.10
528;DHT22;250;47.712;7.508;2022-07-10T03:32:29;17.80;42.30
528;DHT22;250;47.712;7.508;2022-07-10T03:34:56;17.80;42.50
528;DHT22;250;47.712;7.508;2022-07-10T03:37:24;17.80;42.50
528;DHT22;250;47.712;7.508;2022-07-10T03:39:51;17.80;42.40
528;DHT22;250;47.712;7.508;2022-07-10T03:42:19;17.90;42.00
528;DHT22;250;47.712;7.508;2022-07-10T03:44:46;17.90;41.90
528;DHT22;250;47.712;7.508;2022-07-10T03:47:13;17.90;41.90
528;DHT22;250;47.712;7.508;2022-07-10T03:49:40;17.90;41.90
528;DHT22;250;47.712;7.508;2022-07-10T03:52:07;17.90;41.90
528;DHT22;250;47.712;7.508;2022-07-10T03:54:36;18.00;42.00
528;DHT22;250;47.712;7.508;2022-07-10T03:57:04;18.00;42.00
528;DHT22;250;47.712;7.508;2022-07-10T03:59:49;18.00;42.00
528;DHT22;250;47.712;7.508;2022-07-10T04:02:16;18.00;42.00
528;DHT22;250;47.712;7.508;2022-07-10T04:04:43;18.00;42.00
528;DHT22;250;47.712;7.508;2022-07-10T04:07:10;18.00;42.00
528;DHT22;250;47.712;7.508;2022-07-10T04:09:39;18.00;42.00
528;DHT22;250;47.712;7.508;2022-07-10T04:12:07;18.10;42.00
528;DHT22;250;47.712;7.508;2022-07-10T04:14:34;18.10;41.40
528;DHT22;250;47.712;7.508;2022-07-10T04:17:02;18.10;41.30
528;DHT22;250;47.712;7.508;2022-07-10T04:19:29;18.20;41.40
528;DHT22;250;47.712;7.508;2022-07-10T04:21:56;18.20;41.30
528;DHT22;250;47.712;7.508;2022-07-10T04:24:23;18.10;42.00
528;DHT22;250;47.712;7.508;2022-07-10T04:26:52;18.00;42.00
528;DHT22;250;47.712;7.508;2022-07-10T04:29:19;18.00;42.60
528;DHT22;250;47.712;7.508;2022-07-10T04:31:46;17.90;42.80
528;DHT22;250;47.712;7.508;2022-07-10T04:34:13;17.90;43.20
528;DHT22;250;47.712;7.508;2022-07-10T04:36:40;17.90;43.50
528;DHT22;250;47.712;7.508;2022-07-10T04:39:07;17.80;43.80
528;DHT22;250;47.712;7.508;2022-07-10T04:41:34;17.90;44.10
528;DHT22;250;47.712;7.508;2022-07-10T04:44:03;17.80;44.30
528;DHT22;250;47.712;7.508;2022-07-10T04:46:31;17.80;44.70
528;DHT22;250;47.712;7.508;2022-07-10T04:48:58;17.80;45.10
528;DHT22;250;47.712;7.508;2022-07-10T04:51:25;17.80;45.10
528;DHT22;250;47.712;7.508;2022-07-10T04:53:52;17.80;45.20
528;DHT22;250;47.712;7.508;2022-07-10T04:56:19;17.70;45.20
528;DHT22;250;47.712;7.508;2022-07-10T04:58:46;17.70;45.50
528;DHT22;250;47.712;7.508;2022-07-10T05:01:15;17.80;45.50
528;DHT22;250;47.712;7.508;2022-07-10T05:03:42;17.80;45.60
528;DHT22;250;47.712;7.508;2022-07-10T05:06:09;17.80;46.00
528;DHT22;250;47.712;7.508;2022-07-10T05:08:36;17.70;46.30
528;DHT22;250;47.712;7.508;2022-07-10T05:11:04;17.70;46.50
528;DHT22;250;47.712;7.508;2022-07-10T05:13:31;17.70;46.50
528;DHT22;250;47.712;7.508;2022-07-10T05:15:58;17.70;46.80
528;DHT22;250;47.712;7.508;2022-07-10T05:18:26;17.70;47.00
528;DHT22;250;47.712;7.508;2022-07-10T05:20:53;17.70;46.50
528;DHT22;250;47.712;7.508;2022-07-10T05:23:20;17.80;46.60
528;DHT22;250;47.712;7.508;2022-07-10T05:25:48;17.80;46.60
528;DHT22;250;47.712;7.508;2022-07-10T05:28:15;17.80;47.00
528;DHT22;250;47.712;7.508;2022-07-10T05:30:42;17.80;46.80
528;DHT22;250;47.712;7.508;2022-07-10T05:33:09;17.90;46.70
528;DHT22;250;47.712;7.508;2022-07-10T05:35:38;17.90;46.90
528;DHT22;250;47.712;7.508;2022-07-10T05:38:05;17.90;46.70
528;DHT22;250;47.712;7.508;2022-07-10T05:40:32;18.00;46.90
528;DHT22;250;47.712;7.508;2022-07-10T05:42:59;18.00;46.90
528;DHT22;250;47.712;7.508;2022-07-10T05:45:27;18.10;46.90
528;DHT22;250;47.712;7.508;2022-07-10T05:47:54;18.10;46.70
528;DHT22;250;47.712;7.508;2022-07-10T05:50:21;18.10;46.30
528;DHT22;250;47.712;7.508;2022-07-10T05:52:49;18.20;46.10
528;DHT22;250;47.712;7.508;2022-07-10T05:55:16;18.20;44.80
528;DHT22;250;47.712;7.508;2022-07-10T05:57:44;18.20;44.40
528;DHT22;250;47.712;7.508;2022-07-10T06:00:11;18.30;43.90
528;DHT22;250;47.712;7.508;2022-07-10T06:02:39;18.40;42.30
528;DHT22;250;47.712;7.508;2022-07-10T06:05:06;18.50;40.00
528;DHT22;250;47.712;7.508;2022-07-10T06:07:34;18.50;40.10
528;DHT22;250;47.712;7.508;2022-07-10T06:10:03;18.60;40.00
528;DHT22;250;47.712;7.508;2022-07-10T06:12:31;18.60;39.40
528;DHT22;250;47.712;7.508;2022-07-10T06:14:58;18.70;38.90
528;DHT22;250;47.712;7.508;2022-07-10T06:17:25;18.70;38.20
528;DHT22;250;47.712;7.508;2022-07-10T06:19:52;18.80;37.80
528;DHT22;250;47.712;7.508;2022-07-10T06:22:20;18.90;37.90
528;DHT22;250;47.712;7.508;2022-07-10T06:25:02;18.90;37.50
528;DHT22;250;47.712;7.508;2022-07-10T06:27:30;18.90;35.80
528;DHT22;250;47.712;7.508;2022-07-10T06:29:58;18.90;35.60
528;DHT22;250;47.712;7.508;2022-07-10T06:32:25;19.00;36.00
528;DHT22;250;47.712;7.508;2022-07-10T06:34:53;19.10;35.10
528;DHT22;250;47.712;7.508;2022-07-10T06:37:20;19.20;35.30
528;DHT22;250;47.712;7.508;2022-07-10T06:39:48;19.30;33.80
528;DHT22;250;47.712;7.508;2022-07-10T06:42:16;19.40;34.00
528;DHT22;250;47.712;7.508;2022-07-10T06:44:44;19.40;33.70
528;DHT22;250;47.712;7.508;2022-07-10T06:47:14;19.40;33.30
528;DHT22;250;47.712;7.508;2022-07-10T06:49:59;19.40;33.30
528;DHT22;250;47.712;7.508;2022-07-10T06:52:26;19.30;32.90
528;DHT22;250;47.712;7.508;2022-07-10T06:54:54;19.20;33.10
528;DHT22;250;47.712;7.508;2022-07-10T06:57:23;19.20;33.30
528;DHT22;250;47.712;7.508;2022-07-10T06:59:50;19.20;32.90
528;DHT22;250;47.712;7.508;2022-07-10T07:02:17;19.20;33.10
528;DHT22;250;47.712;7.508;2022-07-10T07:04:44;19.30;33.20
528;DHT22;250;47.712;7.508;2022-07-10T07:07:12;19.40;33.20
528;DHT22;250;47.712;7.508;2022-07-10T07:09:39;19.50;33.00
528;DHT22;250;47.712;7.508;2022-07-10T07:12:07;19.60;33.50
528;DHT22;250;47.712;7.508;2022-07-10T07:14:36;19.80;32.70
528;DHT22;250;47.712;7.508;2022-07-10T07:17:04;19.90;32.00
528;DHT22;250;47.712;7.508;2022-07-10T07:19:34;19.90;30.90
528;DHT22;250;47.712;7.508;2022-07-10T07:22:15;19.90;31.20
528;DHT22;250;47.712;7.508;2022-07-10T07:25:00;19.70;30.70
528;DHT22;250;47.712;7.508;2022-07-10T07:27:27;19.70;30.70
528;DHT22;250;47.712;7.508;2022-07-10T07:29:56;19.70;31.10
528;DHT22;250;47.712;7.508;2022-07-10T07:32:23;19.60;31.00
528;DHT22;250;47.712;7.508;2022-07-10T07:34:50;19.70;31.40
528;DHT22;250;47.712;7.508;2022-07-10T07:37:17;19.70;31.40
528;DHT22;250;47.712;7.508;2022-07-10T07:39:44;19.80;31.10
528;DHT22;250;47.712;7.508;2022-07-10T07:42:11;19.80;30.50
528;DHT22;250;47.712;7.508;2022-07-10T07:44:38;19.70;31.00
528;DHT22;250;47.712;7.508;2022-07-10T07:47:06;19.70;31.30
528;DHT22;250;47.712;7.508;2022-07-10T07:49:34;19.70;31.20
528;DHT22;250;47.712;7.508;2022-07-10T07:52:01;19.90;31.40
528;DHT22;250;47.712;7.508;2022-07-10T07:54:28;20.10;29.70
528;DHT22;250;47.712;7.508;2022-07-10T07:56:55;20.10;29.20
528;DHT22;250;47.712;7.508;2022-07-10T07:59:23;20.10;30.60
528;DHT22;250;47.712;7.508;2022-07-10T08:01:50;20.10;30.30
528;DHT22;250;47.712;7.508;2022-07-10T08:04:19;20.10;30.10
528;DHT22;250;47.712;7.508;2022-07-10T08:06:46;20.20;30.00
528;DHT22;250;47.712;7.508;2022-07-10T08:09:13;20.30;29.40
528;DHT22;250;47.712;7.508;2022-07-10T08:11:40;20.50;29.50
528;DHT22;250;47.712;7.508;2022-07-10T08:14:07;20.60;29.20
528;DHT22;250;47.712;7.508;2022-07-10T08:16:34;20.70;28.80
528;DHT22;250;47.712;7.508;2022-07-10T08:19:01;20.80;29.20
528;DHT22;250;47.712;7.508;2022-07-10T08:21:30;20.70;28.70
528;DHT22;250;47.712;7.508;2022-07-10T08:23:57;20.80;28.90
528;DHT22;250;47.712;7.508;2022-07-10T08:26:25;20.80;28.40
528;DHT22;250;47.712;7.508;2022-07-10T08:28:52;20.90;27.60
528;DHT22;250;47.712;7.508;2022-07-10T08:31:19;21.00;27.80
528;DHT22;250;47.712;7.508;2022-07-10T08:33:46;21.10;28.00
528;DHT22;250;47.712;7.508;2022-07-10T08:36:13;21.10;27.30
528;DHT22;250;47.712;7.508;2022-07-10T08:38:42;21.10;27.50
528;DHT22;250;47.712;7.508;2022-07-10T08:41:11;21.20;27.50
528;DHT22;250;47.712;7.508;2022-07-10T08:43:39;21.30;26.90
528;DHT22;250;47.712;7.508;2022-07-10T08:46:06;21.30;26.10
528;DHT22;250;47.712;7.508;2022-07-10T08:48:35;21.30;26.80
528;DHT22;250;47.712;7.508;2022-07-10T08:51:05;21.40;26.60
528;DHT22;250;47.712;7.508;2022-07-10T08:53:35;21.40;26.20
528;DHT22;250;47.712;7.508;2022-07-10T08:56:07;21.40;26.20
528;DHT22;250;47.712;7.508;2022-07-10T08:58:36;21.40;26.10
528;DHT22;250;47.712;7.508;2022-07-10T09:01:03;21.50;26.20
528;DHT22;250;47.712;7.508;2022-07-10T09:03:30;21.50;26.20
528;DHT22;250;47.712;7.508;2022-07-10T09:05:58;21.50;26.20
528;DHT22;250;47.712;7.508;2022-07-10T09:08:26;21.60;26.10
528;DHT22;250;47.712;7.508;2022-07-10T09:11:14;21.60;25.60
528;DHT22;250;47.712;7.508;2022-07-10T09:14:00;21.70;26.40
528;DHT22;250;47.712;7.508;2022-07-10T09:16:29;21.80;25.40
528;DHT22;250;47.712;7.508;2022-07-10T09:18:57;21.80;25.90
528;DHT22;250;47.712;7.508;2022-07-10T09:21:40;21.90;26.00
528;DHT22;250;47.712;7.508;2022-07-10T09:24:08;22.00;25.20
528;DHT22;250;47.712;7.508;2022-07-10T09:26:38;22.20;25.10
528;DHT22;250;47.712;7.508;2022-07-10T09:29:06;22.20;24.60
528;DHT22;250;47.712;7.508;2022-07-10T09:31:48;22.30;24.60
528;DHT22;250;47.712;7.508;2022-07-10T09:34:16;22.30;25.40
528;DHT22;250;47.712;7.508;2022-07-10T09:36:43;22.40;24.30
528;DHT22;250;47.712;7.508;2022-07-10T09:39:10;22.30;25.30
528;DHT22;250;47.712;7.508;2022-07-10T09:41:39;22.20;24.90
528;DHT22;250;47.712;7.508;2022-07-10T09:44:07;22.30;24.90
528;DHT22;250;47.712;7.508;2022-07-10T09:46:37;22.20;25.60
528;DHT22;250;47.712;7.508;2022-07-10T09:49:07;22.00;25.80
528;DHT22;250;47.712;7.508;2022-07-10T09:51:35;22.00;25.30
528;DHT22;250;47.712;7.508;2022-07-10T09:54:05;22.00;25.30
528;DHT22;250;47.712;7.508;2022-07-10T09:56:44;22.00;26.30
528;DHT22;250;47.712;7.508;2022-07-10T09:59:13;22.00;26.60
528;DHT22;250;47.712;7.508;2022-07-10T10:01:44;22.00;26.60
528;DHT22;250;47.712;7.508;2022-07-10T10:04:12;22.20;25.30
528;DHT22;250;47.712;7.508;2022-07-10T10:06:40;22.10;25.10
528;DHT22;250;47.712;7.508;2022-07-10T10:09:12;22.10;25.20
528;DHT22;250;47.712;7.508;2022-07-10T10:11:43;22.10;26.00
528;DHT22;250;47.712;7.508;2022-07-10T10:14:12;22.20;24.70
528;DHT22;250;47.712;7.508;2022-07-10T10:16:40;22.40;24.30
528;DHT22;250;47.712;7.508;2022-07-10T10:19:10;22.40;24.80
528;DHT22;250;47.712;7.508;2022-07-10T10:21:57;22.30;23.70
528;DHT22;250;47.712;7.508;2022-07-10T10:24:25;22.30;25.10
528;DHT22;250;47.712;7.508;2022-07-10T10:26:54;22.40;23.70
528;DHT22;250;47.712;7.508;2022-07-10T10:29:22;22.60;23.50
528;DHT22;250;47.712;7.508;2022-07-10T10:31:49;22.70;23.00
528;DHT22;250;47.712;7.508;2022-07-10T10:34:37;22.70;23.40
528;DHT22;250;47.712;7.508;2022-07-10T10:37:05;22.80;22.00
528;DHT22;250;47.712;7.508;2022-07-10T10:39:51;22.60;22.30
528;DHT22;250;47.712;7.508;2022-07-10T10:42:34;22.50;22.90
528;DHT22;250;47.712;7.508;2022-07-10T10:48:05;22.80;21.50
528;DHT22;250;47.712;7.508;2022-07-10T10:50:38;22.80;22.80
528;DHT22;250;47.712;7.508;2022-07-10T10:53:13;23.00;22.40
528;DHT22;250;47.712;7.508;2022-07-10T10:55:41;23.10;22.40
528;DHT22;250;47.712;7.508;2022-07-10T10:58:37;23.10;21.90
528;DHT22;250;47.712;7.508;2022-07-10T11:01:05;23.00;21.90
528;DHT22;250;47.712;7.508;2022-07-10T11:03:32;23.00;21.20
528;DHT22;250;47.712;7.508;2022-07-10T11:05:59;23.00;21.60
528;DHT22;250;47.712;7.508;2022-07-10T11:08:40;23.10;22.40
528;DHT22;250;47.712;7.508;2022-07-10T11:11:37;23.20;21.00
528;DHT22;250;47.712;7.508;2022-07-10T11:14:07;23.20;21.20
528;DHT22;250;47.712;7.508;2022-07-10T11:16:35;23.20;20.80
528;DHT22;250;47.712;7.508;2022-07-10T11:19:05;23.30;19.30
528;DHT22;250;47.712;7.508;2022-07-10T11:21:41;23.20;19.80
528;DHT22;250;47.712;7.508;2022-07-10T11:24:21;23.30;20.50
528;DHT22;250;47.712;7.508;2022-07-10T11:27:02;23.30;18.00
528;DHT22;250;47.712;7.508;2022-07-10T11:29:37;23.30;19.30
528;DHT22;250;47.712;7.508;2022-07-10T11:32:05;23.40;18.90
528;DHT22;250;47.712;7.508;2022-07-10T11:34:36;23.50;19.80
528;DHT22;250;47.712;7.508;2022-07-10T11:37:13;23.50;18.80
528;DHT22;250;47.712;7.508;2022-07-10T11:39:40;23.40;18.90
528;DHT22;250;47.712;7.508;2022-07-10T11:42:07;23.30;17.20
528;DHT22;250;47.712;7.508;2022-07-10T11:44:34;23.20;19.20
528;DHT22;250;47.712;7.508;2022-07-10T11:47:03;23.20;17.70
528;DHT22;250;47.712;7.508;2022-07-10T11:49:33;23.40;17.60
528;DHT22;250;47.712;7.508;2022-07-10T11:52:02;23.40;18.20
528;DHT22;250;47.712;7.508;2022-07-10T11:54:30;23.50;15.30
528;DHT22;250;47.712;7.508;2022-07-10T11:57:05;23.60;16.10
528;DHT22;250;47.712;7.508;2022-07-10T11:59:32;23.60;15.40
528;DHT22;250;47.712;7.508;2022-07-10T12:01:59;23.70;14.80
528;DHT22;250;47.712;7.508;2022-07-10T12:04:30;23.70;15.60
528;DHT22;250;47.712;7.508;2022-07-10T12:06:57;23.70;14.90
528;DHT22;250;47.712;7.508;2022-07-10T12:09:25;23.80;15.50
528;DHT22;250;47.712;7.508;2022-07-10T12:11:59;23.80;15.90
528;DHT22;250;47.712;7.508;2022-07-10T12:14:26;23.80;15.50
528;DHT22;250;47.712;7.508;2022-07-10T12:16:54;23.70;15.40
528;DHT22;250;47.712;7.508;2022-07-10T12:19:24;23.80;14.00
528;DHT22;250;47.712;7.508;2022-07-10T12:21:53;23.80;15.50
528;DHT22;250;47.712;7.508;2022-07-10T12:24:20;23.90;14.70
528;DHT22;250;47.712;7.508;2022-07-10T12:26:50;24.00;15.70
528;DHT22;250;47.712;7.508;2022-07-10T12:29:21;24.00;14.80
528;DHT22;250;47.712;7.508;2022-07-10T12:31:51;24.00;15.30
528;DHT22;250;47.712;7.508;2022-07-10T12:34:18;24.20;12.90
528;DHT22;250;47.712;7.508;2022-07-10T12:36:47;24.30;13.90
528;DHT22;250;47.712;7.508;2022-07-10T12:39:17;24.30;12.90
528;DHT22;250;47.712;7.508;2022-07-10T12:41:55;24.30;12.40
528;DHT22;250;47.712;7.508;2022-07-10T12:44:37;24.30;12.90
528;DHT22;250;47.712;7.508;2022-07-10T12:47:06;24.20;11.60
528;DHT22;250;47.712;7.508;2022-07-10T12:49:54;24.20;9.60
528;DHT22;250;47.712;7.508;2022-07-10T12:52:23;24.30;9.50
528;DHT22;250;47.712;7.508;2022-07-10T12:55:10;24.40;11.00
528;DHT22;250;47.712;7.508;2022-07-10T12:57:47;24.30;11.60
528;DHT22;250;47.712;7.508;2022-07-10T13:00:15;24.30;10.20
528;DHT22;250;47.712;7.508;2022-07-10T13:02:44;24.40;10.40
528;DHT22;250;47.712;7.508;2022-07-10T13:05:29;24.60;12.20
528;DHT22;250;47.712;7.508;2022-07-10T13:08:10;24.70;12.20
528;DHT22;250;47.712;7.508;2022-07-10T13:10:40;24.80;10.60
528;DHT22;250;47.712;7.508;2022-07-10T13:13:08;24.90;12.10
528;DHT22;250;47.712;7.508;2022-07-10T13:15:36;25.00;12.30
528;DHT22;250;47.712;7.508;2022-07-10T13:18:07;25.20;12.20
528;DHT22;250;47.712;7.508;2022-07-10T13:20:34;25.20;12.20
528;DHT22;250;47.712;7.508;2022-07-10T13:23:01;25.20;12.20
528;DHT22;250;47.712;7.508;2022-07-10T13:25:29;25.30;12.20
528;DHT22;250;47.712;7.508;2022-07-10T13:27:57;25.30;11.80
528;DHT22;250;47.712;7.508;2022-07-10T13:30:24;25.30;12.30
528;DHT22;250;47.712;7.508;2022-07-10T13:32:51;25.30;12.20
528;DHT22;250;47.712;7.508;2022-07-10T13:35:18;25.20;11.90
528;DHT22;250;47.712;7.508;2022-07-10T13:37:46;25.20;12.20
528;DHT22;250;47.712;7.508;2022-07-10T13:40:13;25.20;12.30
528;DHT22;250;47.712;7.508;2022-07-10T13:42:40;25.30;12.30
528;DHT22;250;47.712;7.508;2022-07-10T13:45:09;25.30;12.30
528;DHT22;250;47.712;7.508;2022-07-10T13:47:36;25.20;12.20
528;DHT22;250;47.712;7.508;2022-07-10T13:50:04;25.20;12.20
528;DHT22;250;47.712;7.508;2022-07-10T13:52:31;25.30;12.30
528;DHT22;250;47.712;7.508;2022-07-10T13:54:59;25.40;12.30
528;DHT22;250;47.712;7.508;2022-07-10T13:57:26;25.50;13.30
528;DHT22;250;47.712;7.508;2022-07-10T13:59:54;25.60;12.40
528;DHT22;250;47.712;7.508;2022-07-10T14:02:22;25.70;12.50
528;DHT22;250;47.712;7.508;2022-07-10T14:04:49;25.60;12.40
528;DHT22;250;47.712;7.508;2022-07-10T14:07:16;25.60;12.50
528;DHT22;250;47.712;7.508;2022-07-10T14:09:44;25.70;12.10
528;DHT22;250;47.712;7.508;2022-07-10T14:12:11;25.70;12.50
528;DHT22;250;47.712;7.508;2022-07-10T14:14:38;25.60;11.60
528;DHT22;250;47.712;7.508;2022-07-10T14:17:05;25.60;11.30
528;DHT22;250;47.712;7.508;2022-07-10T14:19:34;25.60;12.00
528;DHT22;250;47.712;7.508;2022-07-10T14:22:01;25.60;12.40
528;DHT22;250;47.712;7.508;2022-07-10T14:24:28;25.60;12.40
528;DHT22;250;47.712;7.508;2022-07-10T14:26:56;25.70;12.20
528;DHT22;250;47.712;7.508;2022-07-10T14:29:23;25.70;12.50
528;DHT22;250;47.712;7.508;2022-07-10T14:31:50;25.60;11.80
528;DHT22;250;47.712;7.508;2022-07-10T14:34:17;25.60;11.80
528;DHT22;250;47.712;7.508;2022-07-10T14:36:46;25.70;12.10
528;DHT22;250;47.712;7.508;2022-07-10T14:39:13;25.60;11.70
528;DHT22;250;47.712;7.508;2022-07-10T14:41:40;25.60;11.30
528;DHT22;250;47.712;7.508;2022-07-10T14:44:07;25.60;11.10
528;DHT22;250;47.712;7.508;2022-07-10T14:46:34;25.70;11.00
528;DHT22;250;47.712;7.508;2022-07-10T14:49:01;25.60;11.30
528;DHT22;250;47.712;7.508;2022-07-10T14:51:28;25.50;11.10
528;DHT22;250;47.712;7.508;2022-07-10T14:53:57;25.40;10.90
528;DHT22;250;47.712;7.508;2022-07-10T14:56:24;25.40;10.40
528;DHT22;250;47.712;7.508;2022-07-10T14:58:51;25.40;10.60
528;DHT22;250;47.712;7.508;2022-07-10T15:01:18;25.40;11.20
528;DHT22;250;47.712;7.508;2022-07-10T15:03:45;25.30;11.70
528;DHT22;250;47.712;7.508;2022-07-10T15:06:12;25.30;11.10
528;DHT22;250;47.712;7.508;2022-07-10T15:08:40;25.30;10.90
528;DHT22;250;47.712;7.508;2022-07-10T15:11:08;25.30;11.10
528;DHT22;250;47.712;7.508;2022-07-10T15:13:35;25.40;11.30
528;DHT22;250;47.712;7.508;2022-07-10T15:16:03;25.40;11.60
528;DHT22;250;47.712;7.508;2022-07-10T15:18:30;25.40;10.70
528;DHT22;250;47.712;7.508;2022-07-10T15:20:57;25.40;10.90
528;DHT22;250;47.712;7.508;2022-07-10T15:23:24;25.40;11.40
528;DHT22;250;47.712;7.508;2022-07-10T15:25:53;25.30;10.70
528;DHT22;250;47.712;7.508;2022-07-10T15:28:22;25.40;10.70
528;DHT22;250;47.712;7.508;2022-07-10T15:30:49;25.40;10.50
528;DHT22;250;47.712;7.508;2022-07-10T15:33:16;25.50;10.10
528;DHT22;250;47.712;7.508;2022-07-10T15:35:43;25.40;10.00
528;DHT22;250;47.712;7.508;2022-07-10T15:38:10;25.40;9.70
528;DHT22;250;47.712;7.508;2022-07-10T15:40:37;25.30;9.60
528;DHT22;250;47.712;7.508;2022-07-10T15:43:04;25.30;9.50
528;DHT22;250;47.712;7.508;2022-07-10T15:45:33;25.30;9.70
528;DHT22;250;47.712;7.508;2022-07-10T15:48:00;25.30;9.70
528;DHT22;250;47.712;7.508;2022-07-10T15:50:27;25.30;9.70
528;DHT22;250;47.712;7.508;2022-07-10T15:52:55;25.20;9.70
528;DHT22;250;47.712;7.508;2022-07-10T15:55:22;25.10;9.50
528;DHT22;250;47.712;7.508;2022-07-10T15:57:49;25.20;9.70
528;DHT22;250;47.712;7.508;2022-07-10T16:00:16;25.20;9.10
528;DHT22;250;47.712;7.508;2022-07-10T16:02:44;25.20;9.10
528;DHT22;250;47.712;7.508;2022-07-10T16:05:11;25.30;9.20
528;DHT22;250;47.712;7.508;2022-07-10T16:07:39;25.30;8.60
528;DHT22;250;47.712;7.508;2022-07-10T16:10:06;25.40;8.40
528;DHT22;250;47.712;7.508;2022-07-10T16:12:33;25.30;8.10
528;DHT22;250;47.712;7.508;2022-07-10T16:15:01;25.10;8.60
528;DHT22;250;47.712;7.508;2022-07-10T16:17:28;25.10;8.40
528;DHT22;250;47.712;7.508;2022-07-10T16:19:56;25.10;8.10
528;DHT22;250;47.712;7.508;2022-07-10T16:22:24;25.10;8.50
528;DHT22;250;47.712;7.508;2022-07-10T16:24:51;25.00;8.10
528;DHT22;250;47.712;7.508;2022-07-10T16:27:35;25.10;8.00
528;DHT22;250;47.712;7.508;2022-07-10T16:30:03;24.90;8.40
528;DHT22;250;47.712;7.508;2022-07-10T16:32:30;25.00;8.60
528;DHT22;250;47.712;7.508;2022-07-10T16:34:58;25.00;8.30
528;DHT22;250;47.712;7.508;2022-07-10T16:37:26;25.00;7.80
528;DHT22;250;47.712;7.508;2022-07-10T16:39:54;25.10;7.80
528;DHT22;250;47.712;7.508;2022-07-10T16:42:21;25.00;7.80
528;DHT22;250;47.712;7.508;2022-07-10T16:44:48;25.10;8.00
528;DHT22;250;47.712;7.508;2022-07-10T16:47:15;25.00;7.50
528;DHT22;250;47.712;7.508;2022-07-10T16:49:42;25.00;7.00